createdAt,value
2023-05-11T00:00:33.501Z,9.68
2023-05-11T00:02:59.952Z,9.85
2023-05-11T00:05:26.555Z,10.40
2023-05-11T00:07:52.931Z,9.77
2023-05-11T00:10:19.553Z,10.93
2023-05-11T00:12:46.060Z,11.15
2023-05-11T00:15:12.477Z,11.18
2023-05-11T00:17:38.871Z,11.60
2023-05-11T00:20:06.212Z,11.00
2023-05-11T00:22:32.573Z,11.05
2023-05-11T00:24:58.958Z,11.48
2023-05-11T00:27:25.560Z,11.10
2023-05-11T00:29:52.076Z,11.18
2023-05-11T00:32:18.467Z,11.73
2023-05-11T00:34:44.888Z,11.82
2023-05-11T00:37:11.316Z,11.65
2023-05-11T00:39:40.409Z,10.98
2023-05-11T00:42:06.954Z,12.30
2023-05-11T00:44:33.346Z,12.18
2023-05-11T00:46:59.915Z,12.32
2023-05-11T00:49:26.792Z,12.52
2023-05-11T00:51:53.337Z,12.05
2023-05-11T00:54:20.395Z,12.00
2023-05-11T00:56:48.279Z,12.18
2023-05-11T00:59:14.742Z,12.68
2023-05-11T01:01:41.256Z,11.48
2023-05-11T01:04:07.875Z,12.70
2023-05-11T01:06:47.525Z,12.30
2023-05-11T01:09:25.264Z,13.10
2023-05-11T01:12:00.284Z,12.90
2023-05-11T01:14:48.436Z,13.20
2023-05-11T01:17:25.583Z,12.50
2023-05-11T01:19:57.591Z,12.15
2023-05-11T01:22:36.574Z,13.32
2023-05-11T01:25:21.838Z,12.27
2023-05-11T01:28:25.942Z,12.98
2023-05-11T01:31:01.781Z,14.02
2023-05-11T01:33:32.776Z,13.02
2023-05-11T01:36:05.345Z,12.90
2023-05-11T01:38:38.630Z,13.40
2023-05-11T01:41:12.135Z,13.43
2023-05-11T01:43:40.846Z,13.40
2023-05-11T01:46:10.284Z,13.40
2023-05-11T01:48:40.727Z,13.50
2023-05-11T01:51:08.981Z,13.45
2023-05-11T01:53:37.649Z,14.45
2023-05-11T01:56:05.941Z,13.35
2023-05-11T01:58:35.879Z,13.68
2023-05-11T02:01:03.601Z,13.52
2023-05-11T02:03:32.822Z,14.18
2023-05-11T02:06:01.042Z,14.50
2023-05-11T02:08:31.166Z,13.75
2023-05-11T02:10:59.210Z,14.95
2023-05-11T02:13:27.418Z,14.07
2023-05-11T02:15:57.033Z,15.52
2023-05-11T02:18:24.431Z,15.20
2023-05-11T02:20:52.176Z,14.63
2023-05-11T02:23:20.502Z,16.55
2023-05-11T02:25:47.592Z,15.32
2023-05-11T02:28:13.970Z,15.88
2023-05-11T02:30:45.885Z,15.55
2023-05-11T02:33:17.765Z,16.75
2023-05-11T02:35:44.831Z,15.13
2023-05-11T02:38:12.463Z,15.77
2023-05-11T02:40:45.756Z,15.23
2023-05-11T02:43:15.612Z,16.13
2023-05-11T02:45:44.505Z,16.08
2023-05-11T02:48:21.390Z,14.93
2023-05-11T02:50:49.941Z,14.82
2023-05-11T02:53:17.540Z,14.20
2023-05-11T02:55:44.036Z,14.00
2023-05-11T02:58:11.176Z,13.25
2023-05-11T03:00:39.499Z,11.23
2023-05-11T03:03:06.281Z,10.77
2023-05-11T03:05:32.764Z,10.15
2023-05-11T03:07:59.960Z,9.48
2023-05-11T03:10:27.774Z,9.13
2023-05-11T03:12:54.408Z,9.13
2023-05-11T03:15:21.714Z,9.35
2023-05-11T03:17:50.122Z,9.18
2023-05-11T03:20:17.587Z,9.05
2023-05-11T03:22:45.758Z,9.38
2023-05-11T03:25:12.547Z,8.50
2023-05-11T03:27:41.912Z,9.25
2023-05-11T03:30:09.613Z,8.77
2023-05-11T03:32:36.514Z,9.30
2023-05-11T03:35:03.123Z,8.90
2023-05-11T03:37:31.214Z,8.73
2023-05-11T03:39:59.293Z,8.68
2023-05-11T03:42:27.193Z,9.65
2023-05-11T03:44:58.368Z,9.18
2023-05-11T03:47:26.228Z,9.23
2023-05-11T03:49:53.434Z,8.85
2023-05-11T03:52:21.168Z,9.60
2023-05-11T03:54:47.664Z,9.40
2023-05-11T03:57:14.968Z,8.93
2023-05-11T03:59:41.335Z,8.68
2023-05-11T04:02:08.367Z,8.43
2023-05-11T04:04:34.905Z,8.20
2023-05-11T04:07:01.392Z,8.37
2023-05-11T04:09:27.736Z,8.45
2023-05-11T04:11:54.120Z,8.10
2023-05-11T04:14:23.142Z,8.23
2023-05-11T04:16:49.497Z,8.70
2023-05-11T04:19:16.608Z,8.17
2023-05-11T04:21:42.977Z,7.90
2023-05-11T04:24:09.358Z,8.27
2023-05-11T04:26:35.712Z,7.90
2023-05-11T04:29:02.095Z,7.77
2023-05-11T04:31:30.280Z,8.20
2023-05-11T04:33:56.723Z,7.45
2023-05-11T04:36:23.077Z,7.40
2023-05-11T04:38:49.442Z,7.90
2023-05-11T04:41:15.924Z,7.40
2023-05-11T04:43:42.294Z,8.13
2023-05-11T04:46:08.633Z,7.20
2023-05-11T04:48:34.985Z,7.97
2023-05-11T04:51:04.103Z,7.50
2023-05-11T04:53:30.831Z,7.85
2023-05-11T04:55:57.322Z,7.70
2023-05-11T04:58:23.705Z,7.30
2023-05-11T05:00:50.353Z,7.70
2023-05-11T05:03:16.805Z,7.50
2023-05-11T05:05:43.179Z,7.87
2023-05-11T05:08:09.563Z,7.40
2023-05-11T05:10:35.911Z,7.20
2023-05-11T05:13:02.284Z,7.40
2023-05-11T05:15:28.683Z,7.37
2023-05-11T05:17:55.112Z,7.67
2023-05-11T05:20:21.516Z,7.25
2023-05-11T05:22:47.871Z,6.90
2023-05-11T05:25:14.246Z,7.30
2023-05-11T05:27:40.617Z,7.10
2023-05-11T05:30:07.501Z,7.63
2023-05-11T05:32:33.888Z,7.15
2023-05-11T05:35:00.342Z,7.50
2023-05-11T05:37:26.705Z,7.27
2023-05-11T05:39:53.072Z,7.00
2023-05-11T05:42:19.422Z,7.35
2023-05-11T05:44:45.910Z,7.20
2023-05-11T05:47:12.302Z,6.80
2023-05-11T05:49:38.673Z,6.70
2023-05-11T05:52:05.012Z,7.30
2023-05-11T05:54:31.370Z,7.40
2023-05-11T05:56:57.737Z,7.38
2023-05-11T05:59:24.392Z,6.78
2023-05-11T06:01:51.374Z,7.13
2023-05-11T06:04:17.830Z,7.38
2023-05-11T06:06:44.481Z,6.78
2023-05-11T06:09:10.864Z,7.05
2023-05-11T06:11:38.133Z,7.13
2023-05-11T06:14:04.501Z,6.70
2023-05-11T06:16:31.115Z,6.43
2023-05-11T06:18:57.613Z,7.00
2023-05-11T06:21:24.025Z,6.63
2023-05-11T06:23:50.378Z,7.03
2023-05-11T06:26:17.053Z,6.55
2023-05-11T06:28:43.411Z,7.03
2023-05-11T06:31:09.899Z,6.97
2023-05-11T06:33:36.361Z,6.50
2023-05-11T06:36:06.824Z,6.70
2023-05-11T06:38:34.240Z,6.30
2023-05-11T06:41:00.657Z,5.82
2023-05-11T06:43:27.025Z,5.70
2023-05-11T06:45:53.476Z,5.75
2023-05-11T06:48:20.091Z,5.80
2023-05-11T06:50:46.514Z,5.05
2023-05-11T06:53:13.520Z,5.68
2023-05-11T06:55:39.904Z,5.80
2023-05-11T06:58:06.295Z,5.05
2023-05-11T07:00:32.658Z,4.93
2023-05-11T07:02:59.094Z,5.47
2023-05-11T07:05:25.499Z,5.40
2023-05-11T07:07:51.972Z,5.47
2023-05-11T07:10:18.611Z,4.97
2023-05-11T07:12:45.322Z,4.38
2023-05-11T07:15:12.399Z,4.35
2023-05-11T07:17:38.798Z,4.43
2023-05-11T07:20:05.872Z,4.07
2023-05-11T07:22:32.272Z,4.30
2023-05-11T07:25:00.456Z,4.30
2023-05-11T07:27:26.821Z,4.30
2023-05-11T07:29:53.178Z,3.92
2023-05-11T07:32:19.535Z,4.20
2023-05-11T07:34:45.895Z,4.28
2023-05-11T07:37:12.284Z,3.72
2023-05-11T07:39:38.675Z,4.30
2023-05-11T07:42:05.052Z,4.30
2023-05-11T07:44:31.431Z,3.88
2023-05-11T07:46:58.544Z,4.15
2023-05-11T07:49:31.538Z,3.90
2023-05-11T07:52:09.132Z,3.92
2023-05-11T07:54:35.534Z,4.10
2023-05-11T07:57:02.108Z,3.75
2023-05-11T07:59:28.468Z,3.90
2023-05-11T08:01:54.894Z,3.72
2023-05-11T08:04:21.261Z,3.83
2023-05-11T08:06:47.636Z,4.03
2023-05-11T08:09:14.939Z,3.53
2023-05-11T08:11:41.828Z,3.83
2023-05-11T08:14:08.208Z,4.00
2023-05-11T08:16:36.999Z,3.78
2023-05-11T08:19:03.586Z,3.70
2023-05-11T08:21:30.536Z,3.97
2023-05-11T08:23:56.920Z,3.55
2023-05-11T08:26:23.260Z,3.50
2023-05-11T08:28:49.628Z,3.33
2023-05-11T08:31:18.459Z,3.70
2023-05-11T08:33:45.165Z,3.90
2023-05-11T08:36:13.502Z,3.90
2023-05-11T08:38:40.333Z,3.67
2023-05-11T08:41:07.673Z,4.13
2023-05-11T08:43:39.682Z,3.70
2023-05-11T08:46:07.852Z,3.85
2023-05-11T08:48:34.379Z,4.00
2023-05-11T08:51:02.120Z,3.85
2023-05-11T08:53:28.829Z,4.13
2023-05-11T08:55:58.147Z,3.85
2023-05-11T08:58:24.792Z,3.92
2023-05-11T09:00:52.005Z,4.30
2023-05-11T09:03:19.512Z,4.20
2023-05-11T09:05:47.282Z,4.32
2023-05-11T09:08:14.704Z,3.50
2023-05-11T09:10:42.367Z,3.55
2023-05-11T09:13:08.780Z,3.65
2023-05-11T09:15:38.121Z,4.00
2023-05-11T09:18:05.485Z,3.83
2023-05-11T09:20:33.411Z,3.50
2023-05-11T09:23:00.431Z,4.05
2023-05-11T09:25:31.741Z,3.88
2023-05-11T09:27:59.515Z,3.53
2023-05-11T09:30:25.983Z,3.60
2023-05-11T09:32:54.604Z,4.07
2023-05-11T09:35:29.747Z,3.33
2023-05-11T09:38:12.138Z,3.40
2023-05-11T09:40:43.223Z,3.15
2023-05-11T09:43:20.876Z,3.50
2023-05-11T09:45:48.794Z,3.55
2023-05-11T09:48:21.084Z,3.25
2023-05-11T09:50:48.721Z,3.45
2023-05-11T09:53:15.154Z,2.90
2023-05-11T09:55:55.403Z,3.10
2023-05-11T09:58:22.094Z,2.90
2023-05-11T10:00:52.563Z,3.03
2023-05-11T10:03:20.163Z,2.97
2023-05-11T10:05:57.979Z,4.03
2023-05-11T10:08:34.205Z,4.38
2023-05-11T10:11:02.577Z,4.65
2023-05-11T10:13:32.110Z,3.22
2023-05-11T10:15:59.232Z,3.40
2023-05-11T10:18:26.453Z,4.15
2023-05-11T10:20:53.403Z,3.28
2023-05-11T10:23:20.976Z,3.38
2023-05-11T10:25:48.017Z,3.10
2023-05-11T10:28:15.066Z,2.85
2023-05-11T10:30:41.942Z,3.35
2023-05-11T10:33:09.538Z,3.42
2023-05-11T10:35:38.378Z,3.63
2023-05-11T10:38:06.617Z,2.80
2023-05-11T10:40:38.454Z,2.95
2023-05-11T10:43:08.447Z,2.78
2023-05-11T10:45:59.877Z,2.80
2023-05-11T10:48:54.038Z,2.72
2023-05-11T10:51:37.976Z,2.92
2023-05-11T10:54:18.528Z,2.92
2023-05-11T10:57:00.306Z,3.00
2023-05-11T11:00:09.760Z,3.45
2023-05-11T11:02:37.487Z,3.08
2023-05-11T11:05:10.587Z,3.00
2023-05-11T11:08:07.111Z,2.92
2023-05-11T11:10:35.924Z,2.90
2023-05-11T11:13:07.939Z,2.80
2023-05-11T11:15:52.797Z,2.97
2023-05-11T11:18:27.314Z,3.42
2023-05-11T11:20:55.825Z,2.90
2023-05-11T11:23:41.167Z,2.90
2023-05-11T11:26:09.952Z,2.45
2023-05-11T11:28:54.371Z,2.85
2023-05-11T11:31:27.960Z,3.15
2023-05-11T11:33:58.779Z,3.08
2023-05-11T11:36:58.491Z,2.72
2023-05-11T11:39:30.398Z,2.85
2023-05-11T11:42:04.804Z,2.85
2023-05-11T11:44:31.390Z,2.95
2023-05-11T11:47:14.268Z,2.78
2023-05-11T11:49:43.212Z,2.92
2023-05-11T11:52:31.190Z,2.75
2023-05-11T11:55:02.339Z,2.45
2023-05-11T11:57:34.734Z,2.63
2023-05-11T12:00:07.212Z,2.92
2023-05-11T12:02:34.914Z,2.70
2023-05-11T12:05:09.548Z,2.67
2023-05-11T12:07:38.843Z,2.50
2023-05-11T12:10:05.658Z,2.38
2023-05-11T12:12:32.341Z,2.60
2023-05-11T12:14:59.880Z,2.45
2023-05-11T12:17:29.389Z,2.65
2023-05-11T12:20:12.035Z,2.70
2023-05-11T12:22:38.392Z,2.70
2023-05-11T12:25:08.817Z,2.30
2023-05-11T12:27:35.187Z,3.78
2023-05-11T12:30:01.822Z,3.45
2023-05-11T12:32:29.221Z,3.78
2023-05-11T12:35:04.484Z,4.55
2023-05-11T12:37:31.502Z,2.97
2023-05-11T12:39:58.614Z,6.28
2023-05-11T12:42:25.313Z,2.60
2023-05-11T12:44:52.252Z,2.53
2023-05-11T12:47:18.828Z,4.32
2023-05-11T12:49:45.306Z,2.50
2023-05-11T12:52:13.486Z,2.30
2023-05-11T12:54:43.388Z,2.53
2023-05-11T12:57:24.383Z,2.53
2023-05-11T13:00:05.987Z,2.90
2023-05-11T13:02:32.443Z,2.60
2023-05-11T13:04:59.020Z,3.28
2023-05-11T13:07:27.532Z,2.80
2023-05-11T13:09:58.383Z,2.05
2023-05-11T13:12:25.720Z,3.00
2023-05-11T13:15:08.983Z,2.50
2023-05-11T13:17:37.414Z,2.60
2023-05-11T13:20:34.634Z,2.50
2023-05-11T13:23:08.279Z,2.88
2023-05-11T13:25:53.055Z,2.00
2023-05-11T13:28:22.082Z,2.38
2023-05-11T13:30:48.732Z,2.10
2023-05-11T13:33:15.384Z,2.20
2023-05-11T13:35:43.227Z,2.08
2023-05-11T13:38:10.658Z,2.30
2023-05-11T13:40:37.896Z,2.30
2023-05-11T13:43:04.587Z,2.47
2023-05-11T13:45:30.993Z,2.60
2023-05-11T13:47:57.413Z,2.05
2023-05-11T13:50:25.132Z,2.58
2023-05-11T13:52:54.522Z,2.20
2023-05-11T13:55:21.608Z,2.20
2023-05-11T13:57:48.269Z,2.78
2023-05-11T14:00:15.443Z,2.20
2023-05-11T14:02:41.894Z,2.15
2023-05-11T14:05:08.926Z,2.60
2023-05-11T14:07:46.268Z,2.20
2023-05-11T14:10:14.845Z,2.45
2023-05-11T14:12:41.385Z,2.40
2023-05-11T14:15:08.468Z,2.50
2023-05-11T14:17:34.929Z,2.75
2023-05-11T14:20:01.467Z,3.13
2023-05-11T14:22:29.098Z,2.50
2023-05-11T14:24:56.076Z,2.03
2023-05-11T14:27:23.357Z,2.35
2023-05-11T14:29:52.035Z,2.35
2023-05-11T14:32:19.410Z,2.17
2023-05-11T14:34:48.981Z,2.60
2023-05-11T14:37:15.741Z,2.30
2023-05-11T14:39:47.772Z,2.50
2023-05-11T14:42:14.408Z,3.25
2023-05-11T14:44:41.666Z,3.10
2023-05-11T14:47:08.726Z,2.72
2023-05-11T14:49:35.188Z,2.80
2023-05-11T14:52:01.902Z,2.47
2023-05-11T14:54:28.288Z,2.28
2023-05-11T14:56:56.179Z,2.45
2023-05-11T14:59:26.086Z,2.50
2023-05-11T15:01:52.476Z,2.20
2023-05-11T15:04:19.251Z,2.33
2023-05-11T15:06:46.139Z,2.53
2023-05-11T15:09:12.586Z,2.42
2023-05-11T15:11:39.017Z,2.75
2023-05-11T15:14:06.880Z,2.38
2023-05-11T15:16:33.309Z,2.47
2023-05-11T15:18:59.937Z,2.70
2023-05-11T15:21:27.459Z,2.40
2023-05-11T15:23:53.846Z,2.80
2023-05-11T15:26:21.444Z,2.80
2023-05-11T15:28:47.869Z,2.55
2023-05-11T15:31:14.678Z,2.58
2023-05-11T15:33:41.420Z,2.65
2023-05-11T15:36:13.192Z,2.88
2023-05-11T15:38:40.250Z,2.33
2023-05-11T15:41:07.680Z,2.20
2023-05-11T15:43:34.087Z,2.40
2023-05-11T15:46:00.549Z,2.60
2023-05-11T15:48:26.949Z,2.40
2023-05-11T15:50:53.337Z,2.50
2023-05-11T15:53:19.777Z,5.32
2023-05-11T15:55:50.515Z,3.08
2023-05-11T15:58:18.005Z,2.70
2023-05-11T16:00:44.502Z,2.60
2023-05-11T16:03:11.007Z,2.30
2023-05-11T16:05:38.357Z,2.45
2023-05-11T16:08:06.355Z,2.50
2023-05-11T16:10:33.006Z,2.30
2023-05-11T16:12:59.469Z,2.50
2023-05-11T16:15:26.080Z,2.65
2023-05-11T16:17:52.581Z,2.63
2023-05-11T16:20:19.186Z,3.20
2023-05-11T16:22:47.482Z,2.45
2023-05-11T16:25:13.964Z,2.60
2023-05-11T16:27:40.490Z,2.30
2023-05-11T16:30:18.276Z,2.55
2023-05-11T16:32:50.729Z,2.45
2023-05-11T16:35:17.141Z,2.42
2023-05-11T16:37:43.516Z,2.47
2023-05-11T16:40:09.966Z,2.42
2023-05-11T16:42:36.353Z,2.72
2023-05-11T16:45:02.705Z,2.88
2023-05-11T16:47:29.094Z,7.78
2023-05-11T16:49:55.541Z,3.72
2023-05-11T16:52:21.914Z,2.60
2023-05-11T16:54:48.298Z,2.60
2023-05-11T16:57:14.659Z,2.72
2023-05-11T16:59:41.265Z,3.20
2023-05-11T17:02:08.233Z,2.97
2023-05-11T17:04:34.683Z,2.60
2023-05-11T17:07:01.140Z,2.42
2023-05-11T17:09:27.973Z,2.40
2023-05-11T17:11:55.206Z,2.33
2023-05-11T17:14:21.583Z,2.50
2023-05-11T17:16:48.069Z,2.92
2023-05-11T17:19:14.557Z,3.00
2023-05-11T17:21:41.289Z,3.03
2023-05-11T17:24:08.105Z,3.50
2023-05-11T17:26:46.286Z,3.45
2023-05-11T17:29:15.450Z,2.65
2023-05-11T17:31:42.146Z,3.10
2023-05-11T17:34:09.273Z,3.33
2023-05-11T17:36:36.122Z,3.20
2023-05-11T17:39:02.589Z,2.83
2023-05-11T17:41:28.983Z,3.00
2023-05-11T17:43:55.399Z,2.90
2023-05-11T17:46:21.885Z,2.75
2023-05-11T17:48:48.409Z,3.03
2023-05-11T17:51:14.803Z,2.72
2023-05-11T17:53:41.855Z,3.13
2023-05-11T17:56:09.925Z,3.65
2023-05-11T17:58:36.336Z,3.67
2023-05-11T18:01:15.614Z,3.00
2023-05-11T18:03:42.360Z,2.92
2023-05-11T18:06:09.005Z,2.60
2023-05-11T18:08:36.667Z,2.88
2023-05-11T18:11:03.244Z,2.80
2023-05-11T18:13:30.930Z,3.30
2023-05-11T18:15:58.450Z,3.00
2023-05-11T18:18:25.151Z,2.78
2023-05-11T18:20:51.660Z,2.97
2023-05-11T18:23:18.559Z,2.97
2023-05-11T18:25:44.967Z,2.75
2023-05-11T18:28:11.408Z,3.88
2023-05-11T18:30:42.009Z,3.05
2023-05-11T18:33:08.445Z,3.15
2023-05-11T18:35:35.136Z,3.17
2023-05-11T18:38:04.120Z,3.45
2023-05-11T18:40:30.510Z,2.95
2023-05-11T18:42:56.903Z,3.28
2023-05-11T18:45:23.274Z,3.35
2023-05-11T18:47:50.268Z,3.85
2023-05-11T18:50:16.763Z,3.50
2023-05-11T18:52:43.186Z,3.10
2023-05-11T18:55:10.136Z,2.95
2023-05-11T18:57:38.039Z,3.28
2023-05-11T19:00:05.440Z,3.22
2023-05-11T19:02:33.065Z,4.47
2023-05-11T19:04:59.517Z,3.42
2023-05-11T19:07:25.947Z,3.53
2023-05-11T19:09:52.617Z,8.50
2023-05-11T19:12:19.689Z,3.53
2023-05-11T19:14:47.482Z,3.50
2023-05-11T19:17:14.066Z,3.97
2023-05-11T19:19:40.534Z,3.63
2023-05-11T19:22:07.746Z,3.95
2023-05-11T19:24:35.683Z,3.47
2023-05-11T19:27:07.453Z,4.30
2023-05-11T19:29:35.231Z,4.72
2023-05-11T19:32:02.007Z,5.05
2023-05-11T19:34:28.502Z,4.43
2023-05-11T19:36:54.876Z,4.97
2023-05-11T19:39:21.298Z,3.90
2023-05-11T19:41:47.674Z,4.63
2023-05-11T19:44:14.045Z,4.18
2023-05-11T19:46:46.230Z,4.43
2023-05-11T19:49:14.893Z,4.00
2023-05-11T19:51:41.252Z,3.70
2023-05-11T19:54:07.794Z,4.03
2023-05-11T19:56:34.175Z,4.20
2023-05-11T19:59:01.222Z,3.53
2023-05-11T20:01:27.665Z,3.50
2023-05-11T20:03:54.222Z,3.88
2023-05-11T20:06:20.735Z,3.90
2023-05-11T20:08:48.832Z,4.60
2023-05-11T20:11:15.398Z,3.63
2023-05-11T20:13:42.396Z,4.95
2023-05-11T20:16:08.876Z,3.78
2023-05-11T20:18:35.333Z,4.28
2023-05-11T20:21:01.759Z,3.90
2023-05-11T20:23:28.164Z,3.50
2023-05-11T20:25:55.069Z,3.88
2023-05-11T20:28:22.097Z,4.10
2023-05-11T20:30:48.714Z,3.10
2023-05-11T20:35:44.427Z,3.55
2023-05-11T20:38:10.804Z,4.05
2023-05-11T20:40:37.182Z,3.88
2023-05-11T20:43:03.646Z,3.85
2023-05-11T20:45:30.037Z,3.30
2023-05-11T20:47:56.477Z,3.63
2023-05-11T20:50:23.428Z,4.00
2023-05-11T20:52:49.964Z,4.25
2023-05-11T20:55:17.721Z,4.00
2023-05-11T20:57:44.233Z,3.88
2023-05-11T21:00:11.432Z,3.97
2023-05-11T21:02:37.918Z,4.60
2023-05-11T21:05:04.467Z,4.28
2023-05-11T21:07:30.932Z,4.35
2023-05-11T21:09:57.376Z,3.83
2023-05-11T21:12:23.772Z,4.05
2023-05-11T21:14:50.199Z,4.15
2023-05-11T21:17:16.744Z,4.22
2023-05-11T21:19:43.226Z,4.45
2023-05-11T21:22:09.636Z,4.22
2023-05-11T21:24:37.588Z,4.38
2023-05-11T21:27:04.201Z,4.25
2023-05-11T21:29:30.627Z,4.25
2023-05-11T21:31:56.993Z,4.32
2023-05-11T21:34:23.368Z,4.28
2023-05-11T21:36:49.777Z,3.95
2023-05-11T21:39:16.154Z,3.88
2023-05-11T21:41:42.532Z,4.63
2023-05-11T21:44:08.894Z,4.90
2023-05-11T21:46:35.428Z,4.53
2023-05-11T21:49:01.881Z,4.45
2023-05-11T21:51:28.274Z,4.07
2023-05-11T21:53:57.561Z,4.53
2023-05-11T21:56:25.026Z,4.47
2023-05-11T21:58:51.414Z,4.38
2023-05-11T22:01:17.805Z,4.63
2023-05-11T22:03:44.352Z,4.57
2023-05-11T22:06:10.903Z,4.75
2023-05-11T22:08:37.366Z,4.00
2023-05-11T22:11:04.100Z,4.43
2023-05-11T22:13:30.476Z,4.28
2023-05-11T22:15:56.891Z,4.43
2023-05-11T22:18:23.409Z,4.72
2023-05-11T22:20:49.828Z,4.68
2023-05-11T22:23:16.211Z,4.30
2023-05-11T22:25:42.600Z,4.50
2023-05-11T22:28:08.999Z,4.63
2023-05-11T22:30:37.362Z,4.40
2023-05-11T22:33:03.906Z,4.28
2023-05-11T22:35:30.406Z,4.85
2023-05-11T22:37:56.790Z,5.40
2023-05-11T22:40:23.196Z,4.70
2023-05-11T22:42:49.564Z,5.05
2023-05-11T22:45:16.430Z,5.47
2023-05-11T22:47:42.888Z,5.03
2023-05-11T22:50:11.878Z,4.80
2023-05-11T22:52:38.608Z,5.18
2023-05-11T22:55:05.519Z,5.03
2023-05-11T22:57:31.888Z,4.88
2023-05-11T22:59:58.248Z,5.00
2023-05-11T23:02:24.647Z,4.50
2023-05-11T23:04:52.408Z,5.45
2023-05-11T23:07:19.445Z,5.13
2023-05-11T23:09:45.835Z,5.00
2023-05-11T23:12:12.756Z,4.88
2023-05-11T23:14:39.150Z,4.95
2023-05-11T23:17:05.533Z,5.07
2023-05-11T23:19:32.081Z,4.70
2023-05-11T23:21:58.607Z,4.78
2023-05-11T23:24:24.997Z,4.93
2023-05-11T23:26:51.361Z,4.93
2023-05-11T23:29:17.755Z,5.07
2023-05-11T23:31:44.192Z,4.82
2023-05-11T23:34:10.577Z,5.15
2023-05-11T23:36:36.951Z,5.18
2023-05-11T23:39:03.351Z,5.20
2023-05-11T23:41:29.720Z,4.65
2023-05-11T23:43:56.076Z,4.95
2023-05-11T23:46:22.436Z,4.85
2023-05-11T23:48:48.809Z,4.63
2023-05-11T23:51:16.464Z,5.05
2023-05-11T23:53:42.924Z,4.88
2023-05-11T23:56:09.320Z,5.45
2023-05-11T23:58:35.729Z,5.22
